Monday, October 15, 2018, 8:32 AM GMT
Back to Local

CYHZ, Halifax International Airport

Location: , , Canada Lat: 44.883
Local Time: 8:32 AM GMT ( 8:32 GMT) Lon: -63.5
Time Zone: GMT Elev: 475 ft

Show me the last for .
Show Decoded

2018-10-15 08:00 METAR CYHZ 150800Z 24006KT 15SM SKC 03/01 A3016 RMK SLP219 =
2018-10-15 07:00 METAR CYHZ 150700Z 25008KT 15SM SKC 04/00 A3015 RMK SLP215 =
2018-10-15 06:00 METAR CYHZ 150600Z 28007KT 15SM SKC 04/01 A3015 RMK SLP216 =
2018-10-15 05:00 METAR CYHZ 150500Z 30008KT 15SM SKC 04/01 A3014 RMK SLP211 =
2018-10-15 04:00 METAR CYHZ 150400Z 26008KT 15SM SKC 03/01 A3013 RMK SLP210 =
2018-10-15 03:00 METAR CYHZ 150300Z 25010KT 15SM SKC 04/01 A3013 RMK SLP209 =
2018-10-15 02:00 METAR CYHZ 150200Z 25011KT 15SM SKC 04/01 A3012 RMK SLP204 =
2018-10-15 01:00 METAR CYHZ 150100Z 26012KT 15SM SKC 05/01 A3010 RMK SLP200 =
2018-10-15 00:00 METAR CYHZ 150000Z 26013KT 15SM SKC 05/01 A3009 RMK SLP194 =
2018-10-14 23:00 METAR CYHZ 142300Z 26008KT 15SM SKC 05/01 A3009 RMK SLP195 =
2018-10-14 22:00 METAR CYHZ 142200Z 29011KT 15SM FEW038 06/00 A3006 RMK SC1 SLP187 =
2018-10-14 21:00 METAR CYHZ 142100Z 29010G15KT 15SM FEW031 08/01 A3003 RMK SC1 SLP175 =
2018-10-14 20:00 METAR CYHZ 142000Z 29014KT 15SM FEW031 09/00 A3001 RMK SC1 SLP167 =
2018-10-14 19:00 METAR CYHZ 141900Z 30012G18KT 15SM FEW032 09/01 A2999 RMK SC1 SLP160 =
2018-10-14 18:00 METAR CYHZ 141800Z 28017G22KT 15SM FEW038 09/M00 A2997 RMK SC1 SLP153 =
2018-10-14 17:00 METAR CYHZ 141700Z 30017G24KT 15SM SCT040 08/M01 A2997 RMK SC4 SLP155 =
2018-10-14 16:00 METAR CYHZ 141600Z 30015G22KT 15SM BKN032 07/M00 A2998 RMK SC5 SLP157 =
2018-10-14 15:00 METAR CYHZ 141500Z 30015G23KT 15SM BKN040 07/00 A2997 RMK SC5 SLP156 =
2018-10-14 14:00 METAR CYHZ 141400Z 30014G19KT 15SM BKN050 06/01 A2997 RMK SC6 SLP154 =
2018-10-14 13:00 METAR CYHZ 141300Z 29010KT 15SM SCT050 05/02 A2996 RMK SC4 SLP150 =
2018-10-14 12:00 METAR CYHZ 141200Z 27011KT 15SM BKN050 04/02 A2994 RMK SC5 SLP146 =
2018-10-14 11:00 METAR CYHZ 141100Z 26009KT 15SM SCT050 03/01 A2992 RMK SC3 SLP137 =
2018-10-14 10:00 METAR CYHZ 141000Z 28008KT 15SM SCT050 03/01 A2988 RMK SC3 SLP125 =
2018-10-14 09:00 METAR CYHZ 140900Z 30010KT 15SM FEW050 03/01 A2987 RMK SC2 SLP120 =

Support USWX by starting your Amazon purchase here.